createdAt,value
2019-04-05T00:00:17.769Z,7.06
2019-04-05T00:02:47.351Z,7.03
2019-04-05T00:05:17.254Z,7.02
2019-04-05T00:07:46.827Z,7.06
2019-04-05T00:10:16.844Z,7.03
2019-04-05T00:12:46.454Z,7.06
2019-04-05T00:15:16.320Z,7.02
2019-04-05T00:17:45.978Z,7.02
2019-04-05T00:20:16.695Z,7.02
2019-04-05T00:22:46.316Z,7.03
2019-04-05T00:25:15.877Z,7.03
2019-04-05T00:27:45.449Z,7.06
2019-04-05T00:30:16.368Z,7.07
2019-04-05T00:32:45.944Z,7.10
2019-04-05T00:35:15.529Z,7.12
2019-04-05T00:37:45.099Z,7.13
2019-04-05T00:40:15.390Z,7.17
2019-04-05T00:42:44.973Z,7.18
2019-04-05T00:45:27.149Z,7.21
2019-04-05T00:47:46.146Z,7.20
2019-04-05T00:50:15.945Z,7.16
2019-04-05T00:52:45.599Z,7.12
2019-04-05T00:55:15.184Z,7.10
2019-04-05T00:57:44.794Z,7.04
2019-04-05T01:00:14.690Z,7.00
2019-04-05T01:02:44.226Z,6.94
2019-04-05T01:05:13.966Z,6.94
2019-04-05T01:07:43.533Z,6.92
2019-04-05T01:10:13.579Z,6.93
2019-04-05T01:12:43.359Z,6.94
2019-04-05T01:15:14.525Z,6.96
2019-04-05T01:17:44.511Z,7.00
2019-04-05T01:20:14.232Z,7.01
2019-04-05T01:22:45.541Z,6.98
2019-04-05T01:25:15.330Z,6.97
2019-04-05T01:27:45.028Z,6.98
2019-04-05T01:30:16.567Z,6.95
2019-04-05T01:32:46.477Z,6.97
2019-04-05T01:35:17.393Z,6.99
2019-04-05T01:37:47.708Z,6.97
2019-04-05T01:40:17.783Z,6.91
2019-04-05T01:42:48.666Z,6.94
2019-04-05T01:45:18.233Z,6.92
2019-04-05T01:47:47.831Z,6.92
2019-04-05T01:50:17.700Z,6.95
2019-04-05T01:52:48.308Z,6.93
2019-04-05T01:55:17.959Z,6.97
2019-04-05T01:57:47.533Z,6.96
2019-04-05T02:00:17.994Z,6.99
2019-04-05T02:02:48.099Z,6.97
2019-04-05T02:05:17.908Z,6.95
2019-04-05T02:07:47.544Z,6.94
2019-04-05T02:10:17.187Z,6.93
2019-04-05T02:12:46.762Z,6.88
2019-04-05T02:15:30.836Z,6.84
2019-04-05T02:18:00.470Z,6.82
2019-04-05T02:20:30.620Z,6.76
2019-04-05T02:23:00.504Z,6.68
2019-04-05T02:25:30.267Z,6.72
2019-04-05T02:27:59.844Z,6.73
2019-04-05T02:30:29.580Z,6.76
2019-04-05T02:32:59.209Z,6.78
2019-04-05T02:35:29.133Z,6.82
2019-04-05T02:37:58.850Z,6.83
2019-04-05T02:40:29.271Z,6.81
2019-04-05T02:43:01.803Z,6.76
2019-04-05T02:45:33.476Z,6.73
2019-04-05T02:48:05.897Z,6.72
2019-04-05T02:50:40.049Z,6.70
2019-04-05T02:53:12.173Z,6.65
2019-04-05T02:55:43.828Z,6.69
2019-04-05T02:58:14.633Z,6.70
2019-04-05T03:00:45.191Z,6.68
2019-04-05T03:03:15.491Z,6.70
2019-04-05T03:05:47.147Z,6.74
2019-04-05T03:08:17.931Z,6.77
2019-04-05T03:11:12.908Z,6.73
2019-04-05T03:13:54.507Z,6.75
2019-04-05T03:16:40.382Z,6.73
2019-04-05T03:19:10.193Z,6.75
2019-04-05T03:21:44.633Z,6.69
2019-04-05T03:24:18.138Z,6.69
2019-04-05T03:26:52.405Z,6.69
2019-04-05T03:29:22.205Z,6.75
2019-04-05T03:31:52.932Z,6.78
2019-04-05T03:34:23.679Z,6.77
2019-04-05T03:36:53.734Z,6.77
2019-04-05T03:39:24.474Z,6.83
2019-04-05T03:41:54.967Z,6.85
2019-04-05T03:44:24.551Z,6.82
2019-04-05T03:46:57.494Z,6.77
2019-04-05T03:49:26.763Z,6.79
2019-04-05T03:51:56.644Z,6.80
2019-04-05T03:54:26.454Z,6.78
2019-04-05T03:56:56.280Z,6.77
2019-04-05T03:59:26.250Z,6.73
2019-04-05T04:01:56.024Z,6.74
2019-04-05T04:04:25.897Z,6.74
2019-04-05T04:06:55.991Z,6.73
2019-04-05T04:09:25.701Z,6.75
2019-04-05T04:11:55.505Z,6.76
2019-04-05T04:14:25.383Z,6.77
2019-04-05T04:17:11.022Z,6.78
2019-04-05T04:19:27.133Z,6.80
2019-04-05T04:22:17.694Z,6.80
2019-04-05T04:24:47.585Z,6.81
2019-04-05T04:27:17.727Z,6.84
2019-04-05T04:29:47.281Z,6.86
2019-04-05T04:32:17.548Z,6.83
2019-04-05T04:34:47.336Z,6.83
2019-04-05T04:37:17.202Z,6.83
2019-04-05T04:39:46.893Z,6.82
2019-04-05T04:42:16.919Z,6.85
2019-04-05T04:44:46.613Z,6.86
2019-04-05T04:47:26.206Z,6.86
2019-04-05T04:49:49.095Z,6.86
2019-04-05T04:52:18.891Z,6.89
2019-04-05T04:54:48.596Z,6.89
2019-04-05T04:57:18.495Z,6.87
2019-04-05T04:59:48.034Z,6.87
2019-04-05T05:02:18.048Z,6.83
2019-04-05T05:04:48.271Z,6.80
2019-04-05T05:07:18.142Z,6.86
2019-04-05T05:09:49.581Z,6.87
2019-04-05T05:12:19.223Z,6.87
2019-04-05T05:14:49.471Z,6.93
2019-04-05T05:17:19.510Z,6.96
2019-04-05T05:19:49.195Z,6.97
2019-04-05T05:22:18.970Z,6.96
2019-04-05T05:24:48.717Z,6.97
2019-04-05T05:27:18.718Z,6.93
2019-04-05T05:29:48.714Z,6.92
2019-04-05T05:32:18.614Z,6.95
2019-04-05T05:35:01.108Z,6.97
2019-04-05T05:37:20.820Z,6.96
2019-04-05T05:39:50.374Z,6.96
2019-04-05T05:42:20.187Z,6.92
2019-04-05T05:44:49.715Z,6.92
2019-04-05T05:47:19.245Z,6.86
2019-04-05T05:49:50.477Z,6.85
2019-04-05T05:52:21.057Z,6.84
2019-04-05T05:54:50.945Z,6.85
2019-04-05T05:57:20.470Z,6.84
2019-04-05T05:59:50.090Z,6.86
2019-04-05T06:02:19.642Z,6.81
2019-04-05T06:04:49.207Z,6.84
2019-04-05T06:07:20.218Z,6.86
2019-04-05T06:09:49.877Z,6.89
2019-04-05T06:12:19.460Z,6.89
2019-04-05T06:14:49.032Z,6.92
2019-04-05T06:17:18.632Z,6.93
2019-04-05T06:19:49.810Z,6.98
2019-04-05T06:22:19.366Z,6.99
2019-04-05T06:24:48.913Z,6.99
2019-04-05T06:27:18.482Z,6.98
2019-04-05T06:29:48.109Z,6.96
2019-04-05T06:32:17.714Z,6.98
2019-04-05T06:34:47.237Z,6.98
2019-04-05T06:37:16.778Z,7.03
2019-04-05T06:39:46.342Z,7.04
2019-04-05T06:42:15.902Z,7.08
2019-04-05T06:44:45.476Z,7.10
2019-04-05T06:47:15.148Z,7.09
2019-04-05T06:49:44.727Z,7.12
2019-04-05T06:52:14.301Z,7.09
2019-04-05T06:54:43.860Z,7.08
2019-04-05T06:57:13.415Z,7.13
2019-04-05T06:59:42.969Z,7.16
2019-04-05T07:02:12.486Z,7.13
2019-04-05T07:04:42.025Z,7.14
2019-04-05T07:07:12.091Z,7.12
2019-04-05T07:09:41.632Z,7.08
2019-04-05T07:12:11.163Z,7.10
2019-04-05T07:14:40.768Z,7.11
2019-04-05T07:17:10.357Z,7.10
2019-04-05T07:19:39.880Z,7.02
2019-04-05T07:22:09.445Z,7.03
2019-04-05T07:24:38.970Z,6.98
2019-04-05T07:27:08.534Z,6.98
2019-04-05T07:29:38.081Z,6.99
2019-04-05T07:32:07.604Z,7.03
2019-04-05T07:34:37.192Z,7.07
2019-04-05T07:37:06.710Z,7.09
2019-04-05T07:39:36.243Z,7.07
2019-04-05T07:42:05.945Z,7.07
2019-04-05T07:44:35.500Z,7.09
2019-04-05T07:47:05.048Z,7.05
2019-04-05T07:49:34.626Z,7.03
2019-04-05T07:52:04.157Z,7.03
2019-04-05T07:54:33.698Z,7.03
2019-04-05T07:57:03.353Z,7.02
2019-04-05T07:59:33.236Z,7.02
2019-04-05T08:02:02.740Z,7.02
2019-04-05T08:04:32.283Z,7.06
2019-04-05T08:07:04.360Z,7.14
2019-04-05T08:09:37.040Z,7.10
2019-04-05T08:12:08.026Z,7.13
2019-04-05T08:14:39.881Z,7.20
2019-04-05T08:17:09.702Z,7.23
2019-04-05T08:19:39.258Z,7.29
2019-04-05T08:22:08.770Z,7.25
2019-04-05T08:24:38.354Z,7.22
2019-04-05T08:27:07.884Z,7.23
2019-04-05T08:29:37.428Z,7.27
2019-04-05T08:32:14.506Z,7.25
2019-04-05T08:34:38.337Z,7.32
2019-04-05T08:37:07.906Z,7.31
2019-04-05T08:39:37.460Z,7.35
2019-04-05T08:42:07.004Z,7.33
2019-04-05T08:44:36.554Z,7.40
2019-04-05T08:47:06.159Z,7.48
2019-04-05T08:49:35.785Z,7.47
2019-04-05T08:52:05.400Z,7.50
2019-04-05T08:54:36.756Z,7.50
2019-04-05T08:57:06.525Z,7.43
2019-04-05T08:59:36.086Z,7.45
2019-04-05T09:02:05.833Z,7.41
2019-04-05T09:04:35.382Z,7.40
2019-04-05T09:07:05.010Z,7.50
2019-04-05T09:09:34.567Z,7.57
2019-04-05T09:12:04.209Z,7.61
2019-04-05T09:14:33.755Z,7.67
2019-04-05T09:17:03.385Z,7.66
2019-04-05T09:19:33.179Z,7.69
2019-04-05T09:22:02.726Z,7.71
2019-04-05T09:24:32.257Z,7.80
2019-04-05T09:27:01.798Z,7.83
2019-04-05T09:29:31.362Z,7.81
2019-04-05T09:32:01.344Z,7.82
2019-04-05T09:34:30.880Z,7.81
2019-04-05T09:37:00.453Z,7.85
2019-04-05T09:39:30.003Z,7.86
2019-04-05T09:41:59.561Z,7.88
2019-04-05T09:44:29.175Z,7.90
2019-04-05T09:46:58.717Z,7.94
2019-04-05T09:49:36.668Z,7.88
2019-04-05T09:51:59.841Z,7.89
2019-04-05T09:54:29.376Z,7.86
2019-04-05T09:56:58.912Z,7.93
2019-04-05T09:59:28.486Z,7.94
2019-04-05T10:01:58.040Z,7.90
2019-04-05T10:04:27.578Z,7.84
2019-04-05T10:06:57.201Z,7.76
2019-04-05T10:09:26.751Z,7.76
2019-04-05T10:11:56.292Z,7.81
2019-04-05T10:14:25.833Z,7.85
2019-04-05T10:16:55.446Z,7.88
2019-04-05T10:19:24.993Z,7.94
2019-04-05T10:21:54.569Z,7.89
2019-04-05T10:24:24.140Z,7.90
2019-04-05T10:26:53.746Z,7.93
2019-04-05T10:29:23.323Z,7.98
2019-04-05T10:31:52.913Z,7.96
2019-04-05T10:34:22.458Z,7.94
2019-04-05T10:36:52.013Z,7.95
2019-04-05T10:39:21.605Z,8.02
2019-04-05T10:42:02.654Z,7.97
2019-04-05T10:44:22.674Z,8.01
2019-04-05T10:46:52.335Z,8.00
2019-04-05T10:49:21.893Z,8.05
2019-04-05T10:51:51.528Z,8.07
2019-04-05T10:54:21.107Z,8.06
2019-04-05T10:56:50.765Z,8.04
2019-04-05T10:59:23.989Z,8.06
2019-04-05T11:01:53.536Z,8.06
2019-04-05T11:04:23.080Z,8.09
2019-04-05T11:06:52.631Z,8.12
2019-04-05T11:09:22.168Z,8.15
2019-04-05T11:11:51.777Z,8.20
2019-04-05T11:14:21.394Z,8.26
2019-04-05T11:16:58.299Z,8.29
2019-04-05T11:19:22.221Z,8.35
2019-04-05T11:21:52.430Z,8.39
2019-04-05T11:24:22.439Z,8.41
2019-04-05T11:26:52.083Z,8.41
2019-04-05T11:29:21.638Z,8.47
2019-04-05T11:31:56.811Z,8.47
2019-04-05T11:34:22.521Z,8.47
2019-04-05T11:36:52.771Z,8.47
2019-04-05T11:39:22.791Z,8.46
2019-04-05T11:41:54.090Z,8.45
2019-04-05T11:44:25.705Z,8.43
2019-04-05T11:46:56.652Z,8.42
2019-04-05T11:49:26.366Z,8.43
2019-04-05T11:51:56.230Z,8.40
2019-04-05T11:54:25.759Z,8.43
2019-04-05T11:56:55.303Z,8.48
2019-04-05T11:59:25.207Z,8.39
2019-04-05T12:01:58.821Z,8.46
2019-04-05T12:04:28.356Z,8.46
2019-04-05T12:06:57.906Z,8.47
2019-04-05T12:09:27.435Z,8.50
2019-04-05T12:11:56.978Z,8.46
2019-04-05T12:14:30.526Z,8.47
2019-04-05T12:16:57.945Z,8.48
2019-04-05T12:19:27.518Z,8.46
2019-04-05T12:21:57.116Z,8.51
2019-04-05T12:24:26.661Z,8.48
2019-04-05T12:26:56.299Z,8.50
2019-04-05T12:29:25.828Z,8.51
2019-04-05T12:31:56.214Z,8.54
2019-04-05T12:34:28.504Z,8.55
2019-04-05T12:36:57.075Z,8.55
2019-04-05T12:39:26.600Z,8.58
2019-04-05T12:41:56.292Z,8.58
2019-04-05T12:44:25.848Z,8.57
2019-04-05T12:46:55.508Z,8.53
2019-04-05T12:49:25.044Z,8.54
2019-04-05T12:51:54.864Z,8.53
2019-04-05T12:54:24.684Z,8.57
2019-04-05T12:56:56.309Z,8.57
2019-04-05T12:59:26.007Z,8.59
2019-04-05T13:01:55.501Z,8.59
2019-04-05T13:04:25.414Z,8.64
2019-04-05T13:06:55.007Z,8.56
2019-04-05T13:09:24.838Z,8.57
2019-04-05T13:11:57.318Z,8.57
2019-04-05T13:14:26.945Z,8.62
2019-04-05T13:16:56.757Z,8.63
2019-04-05T13:19:26.310Z,8.61
2019-04-05T13:21:55.875Z,8.58
2019-04-05T13:24:25.418Z,8.57
2019-04-05T13:26:55.368Z,8.59
2019-04-05T13:29:24.895Z,8.59
2019-04-05T13:31:54.431Z,8.62
2019-04-05T13:34:25.874Z,8.61
2019-04-05T13:36:55.477Z,8.61
2019-04-05T13:39:25.053Z,8.63
2019-04-05T13:41:54.678Z,8.58
2019-04-05T13:44:24.257Z,8.56
2019-04-05T13:46:53.852Z,8.59
2019-04-05T13:49:23.787Z,8.58
2019-04-05T13:51:53.315Z,8.54
2019-04-05T13:54:22.899Z,8.55
2019-04-05T13:56:52.499Z,8.54
2019-04-05T13:59:22.111Z,8.48
2019-04-05T14:01:51.684Z,8.45
2019-04-05T14:04:21.980Z,8.42
2019-04-05T14:06:53.631Z,8.40
2019-04-05T14:09:22.998Z,8.38
2019-04-05T14:11:52.546Z,8.33
2019-04-05T14:14:22.140Z,8.36
2019-04-05T14:16:53.950Z,8.34
2019-04-05T14:19:22.990Z,8.39
2019-04-05T14:21:53.686Z,8.41
2019-04-05T14:24:23.904Z,8.37
2019-04-05T14:26:53.544Z,8.39
2019-04-05T14:29:23.166Z,8.35
2019-04-05T14:31:52.712Z,8.33
2019-04-05T14:34:23.704Z,8.34
2019-04-05T14:36:53.550Z,8.34
2019-04-05T14:39:23.255Z,8.35
2019-04-05T14:41:52.831Z,8.28
2019-04-05T14:44:22.545Z,8.32
2019-04-05T14:46:52.095Z,8.22
2019-04-05T14:49:21.729Z,8.28
2019-04-05T14:51:53.889Z,8.28
2019-04-05T14:54:22.606Z,8.28
2019-04-05T14:56:52.129Z,8.33
2019-04-05T14:59:22.428Z,8.30
2019-04-05T15:01:51.953Z,8.26
2019-04-05T15:04:21.513Z,8.26
2019-04-05T15:06:51.742Z,8.28
2019-04-05T15:09:24.816Z,8.28
2019-04-05T15:11:52.601Z,8.21
2019-04-05T15:14:22.143Z,8.23
2019-04-05T15:16:51.789Z,8.23
2019-04-05T15:19:21.442Z,8.21
2019-04-05T15:21:51.000Z,8.22
2019-04-05T15:24:20.537Z,8.20
2019-04-05T15:26:51.507Z,8.12
2019-04-05T15:29:21.395Z,8.18
2019-04-05T15:31:50.944Z,8.12
2019-04-05T15:34:20.464Z,8.13
2019-04-05T15:36:50.035Z,8.15
2019-04-05T15:39:19.833Z,8.17
2019-04-05T15:41:49.393Z,8.14
2019-04-05T15:44:21.271Z,8.06
2019-04-05T15:46:51.832Z,8.01
2019-04-05T15:49:21.655Z,8.04
2019-04-05T15:51:54.377Z,8.08
2019-04-05T15:54:23.104Z,8.11
2019-04-05T15:56:52.661Z,8.10
2019-04-05T15:59:22.460Z,8.12
2019-04-05T16:01:52.023Z,8.11
2019-04-05T16:04:22.240Z,8.15
2019-04-05T16:06:51.802Z,8.12
2019-04-05T16:09:22.609Z,8.08
2019-04-05T16:11:52.524Z,8.10
2019-04-05T16:14:22.097Z,8.07
2019-04-05T16:16:56.450Z,8.09
2019-04-05T16:19:25.980Z,8.13
2019-04-05T16:21:55.535Z,8.11
2019-04-05T16:24:25.950Z,8.10
2019-04-05T16:26:55.537Z,8.10
2019-04-05T16:29:25.987Z,8.14
2019-04-05T16:31:55.863Z,8.11
2019-04-05T16:34:25.437Z,8.14
2019-04-05T16:36:54.983Z,8.13
2019-04-05T16:39:25.113Z,8.10
2019-04-05T16:41:54.832Z,8.17
2019-04-05T16:44:24.405Z,8.14
2019-04-05T16:46:54.506Z,8.10
2019-04-05T16:49:24.312Z,8.12
2019-04-05T16:51:53.867Z,8.14
2019-04-05T16:54:23.394Z,8.12
2019-04-05T16:56:53.129Z,8.06
2019-04-05T16:59:22.747Z,8.07
2019-04-05T17:01:52.284Z,8.13
2019-04-05T17:04:21.812Z,8.10
2019-04-05T17:06:51.351Z,8.16
2019-04-05T17:09:20.913Z,8.07
2019-04-05T17:11:50.573Z,8.10
2019-04-05T17:14:23.087Z,8.05
2019-04-05T17:16:51.395Z,8.12
2019-04-05T17:19:20.957Z,8.16
2019-04-05T17:21:50.611Z,8.15
2019-04-05T17:24:20.141Z,8.17
2019-04-05T17:26:49.691Z,8.15
2019-04-05T17:29:19.247Z,8.13
2019-04-05T17:31:48.899Z,8.12
2019-04-05T17:34:18.447Z,8.13
2019-04-05T17:36:48.166Z,8.11
2019-04-05T17:39:17.742Z,8.12
2019-04-05T17:41:47.387Z,8.12
2019-04-05T17:44:16.943Z,8.11
2019-04-05T17:46:46.560Z,8.08
2019-04-05T17:49:16.130Z,8.07
2019-04-05T17:51:46.644Z,8.07
2019-04-05T17:54:16.160Z,8.05
2019-04-05T17:56:46.271Z,8.02
2019-04-05T17:59:16.557Z,8.04
2019-04-05T18:01:46.308Z,8.03
2019-04-05T18:04:15.829Z,7.98
2019-04-05T18:06:45.385Z,7.97
2019-04-05T18:09:14.996Z,7.97
2019-04-05T18:11:44.655Z,7.98
2019-04-05T18:14:14.177Z,7.96
2019-04-05T18:16:43.982Z,7.95
2019-04-05T18:19:13.833Z,7.95
2019-04-05T18:21:43.386Z,7.97
2019-04-05T18:24:12.928Z,7.91
2019-04-05T18:26:42.751Z,7.95
2019-04-05T18:29:12.372Z,8.00
2019-04-05T18:31:41.906Z,8.03
2019-04-05T18:34:11.628Z,8.07
2019-04-05T18:36:41.201Z,8.04
2019-04-05T18:39:11.360Z,8.02
2019-04-05T18:41:43.641Z,8.07
2019-04-05T18:44:13.218Z,8.07
2019-04-05T18:46:42.787Z,8.05
2019-04-05T18:49:13.303Z,8.06
2019-04-05T18:51:43.250Z,8.07
2019-04-05T18:54:12.788Z,8.11
2019-04-05T18:56:42.329Z,8.16
2019-04-05T18:59:11.894Z,8.19
2019-04-05T19:01:41.444Z,8.23
2019-04-05T19:04:11.281Z,8.25
2019-04-05T19:06:40.968Z,8.28
2019-04-05T19:09:12.091Z,8.26
2019-04-05T19:11:42.024Z,8.25
2019-04-05T19:14:11.807Z,8.27
2019-04-05T19:16:41.351Z,8.31
2019-04-05T19:19:10.911Z,8.31
2019-04-05T19:21:40.477Z,8.37
2019-04-05T19:24:10.090Z,8.30
2019-04-05T19:26:39.790Z,8.30
2019-04-05T19:29:09.542Z,8.33
2019-04-05T19:49:20.135Z,8.08
2019-04-05T19:51:50.006Z,8.04
2019-04-05T19:54:20.136Z,8.08
2019-04-05T19:56:50.064Z,8.10
2019-04-05T19:59:19.739Z,8.14
2019-04-05T20:01:49.268Z,8.12
2019-04-05T20:04:19.521Z,8.14
2019-04-05T20:06:58.148Z,8.14
2019-04-05T20:09:21.592Z,8.17
2019-04-05T20:11:51.640Z,8.14
2019-04-05T20:14:21.663Z,8.13
2019-04-05T20:16:53.960Z,8.10
2019-04-05T20:19:23.817Z,8.10
2019-04-05T20:21:53.891Z,8.14
2019-04-05T20:24:23.925Z,8.07
2019-04-05T20:26:54.111Z,8.06
2019-04-05T20:29:24.075Z,8.06
2019-04-05T20:31:54.813Z,8.05
2019-04-05T20:34:24.791Z,8.03
2019-04-05T20:36:54.724Z,8.04
2019-04-05T20:39:25.110Z,8.05
2019-04-05T20:41:55.002Z,8.03
2019-04-05T20:44:24.845Z,8.03
2019-04-05T20:46:54.749Z,7.97
2019-04-05T20:49:24.524Z,8.01
2019-04-05T20:51:54.535Z,8.03
2019-04-05T20:54:25.079Z,8.00
2019-04-05T20:56:54.883Z,8.02
2019-04-05T20:59:24.858Z,8.03
2019-04-05T21:01:55.282Z,8.03
2019-04-05T21:04:25.462Z,8.05
2019-04-05T21:06:55.657Z,8.05
2019-04-05T21:09:25.571Z,8.08
2019-04-05T21:11:55.417Z,8.09
2019-04-05T21:14:26.346Z,8.10
2019-04-05T21:16:56.381Z,8.11
2019-04-05T21:19:26.637Z,8.07
2019-04-05T21:21:56.497Z,8.10
2019-04-05T21:24:35.777Z,8.12
2019-04-05T21:26:58.526Z,8.17
2019-04-05T21:29:28.496Z,8.22
2019-04-05T21:31:58.814Z,8.25
2019-04-05T21:34:28.805Z,8.28
2019-04-05T21:36:59.029Z,8.25
2019-04-05T21:39:28.952Z,8.21
2019-04-05T21:41:59.021Z,8.12
2019-04-05T21:44:29.449Z,8.11
2019-04-05T21:46:59.642Z,8.11
2019-04-05T21:49:29.766Z,8.14
2019-04-05T21:52:00.138Z,8.13
2019-04-05T21:54:30.435Z,8.11
2019-04-05T21:57:00.379Z,8.13
2019-04-05T21:59:30.291Z,8.12
2019-04-05T22:02:02.293Z,8.06
2019-04-05T22:04:31.724Z,8.08
2019-04-05T22:07:05.611Z,8.05
2019-04-05T22:09:35.761Z,8.06
2019-04-05T22:12:09.447Z,8.10
2019-04-05T22:14:38.857Z,8.10
2019-04-05T22:17:09.049Z,8.08
2019-04-05T22:19:39.259Z,8.07
2019-04-05T22:22:10.583Z,8.07
2019-04-05T22:24:42.130Z,8.06
2019-04-05T22:27:12.155Z,8.07
2019-04-05T22:29:42.472Z,8.03
2019-04-05T22:32:12.530Z,8.05
2019-04-05T22:34:42.604Z,8.10
2019-04-05T22:37:12.727Z,8.05
2019-04-05T22:39:45.498Z,8.08
2019-04-05T22:42:16.154Z,8.11
2019-04-05T22:44:45.987Z,8.15
2019-04-05T22:47:16.461Z,8.16
2019-04-05T22:49:46.857Z,8.14
2019-04-05T22:52:17.611Z,8.10
2019-04-05T22:54:48.748Z,8.11
2019-04-05T22:57:20.629Z,8.14
2019-04-05T22:59:50.672Z,8.12
2019-04-05T23:02:21.780Z,8.14
2019-04-05T23:04:51.860Z,8.14
2019-04-05T23:07:22.044Z,8.13
2019-04-05T23:09:53.153Z,8.19
2019-04-05T23:12:23.639Z,8.15
2019-04-05T23:14:53.514Z,8.11
2019-04-05T23:17:23.180Z,8.14
2019-04-05T23:19:52.853Z,8.06
2019-04-05T23:22:22.842Z,8.02
2019-04-05T23:24:52.630Z,8.04
2019-04-05T23:27:22.772Z,8.08
2019-04-05T23:29:53.190Z,8.02
2019-04-05T23:32:23.329Z,8.06
2019-04-05T23:34:53.559Z,8.05
2019-04-05T23:37:23.794Z,8.03
2019-04-05T23:39:53.876Z,8.03
2019-04-05T23:42:23.992Z,8.02
2019-04-05T23:44:55.469Z,8.04
2019-04-05T23:47:25.618Z,8.06
2019-04-05T23:49:55.823Z,8.03
2019-04-05T23:52:26.048Z,8.05
2019-04-05T23:54:56.378Z,8.09
2019-04-05T23:57:26.568Z,8.04
2019-04-05T23:59:56.120Z,8.04
